TimeEST,TemperatureF,Dew PointF,Humidity,Sea Level PressureIn,VisibilityMPH,Wind Direction,Wind SpeedMPH,Gust SpeedMPH,PrecipitationIn,Events,Conditions,WindDirDegrees,DateUTC
12:53 AM,35.1,24.1,64,30.07,10.0,SW,8.1,-,N/A,,Overcast,220,2013-01-01 05:53:00
1:08 AM,35.6,24.8,65,30.04,10.0,SW,8.1,-,N/A,,Overcast,230,2013-01-01 06:08:00
2:50 AM,32.0,28.4,87,30.05,3.0,SW,9.2,-,0.00,Snow,Light Snow,220,2013-01-01 07:50:00
2:53 AM,32.0,28.9,88,30.07,2.5,SSW,8.1,-,0.00,Snow,Light Snow,210,2013-01-01 07:53:00
3:12 AM,32.0,28.4,87,30.05,4.0,SSW,8.1,-,0.00,,Overcast,200,2013-01-01 08:12:00
3:28 AM,32.0,28.4,87,30.04,2.5,SSW,8.1,-,0.00,Snow,Light Snow,200,2013-01-01 08:28:00
3:35 AM,32.0,30.2,93,30.04,2.0,SSW,5.8,-,0.00,Snow,Light Snow,200,2013-01-01 08:35:00
3:42 AM,32.0,30.2,93,30.03,2.0,SSW,6.9,-,0.00,Snow,Light Snow,200,2013-01-01 08:42:00
3:53 AM,32.0,30.0,92,30.06,2.0,SSW,8.1,-,0.00,Snow,Light Snow,200,2013-01-01 08:53:00
4:29 AM,32.0,30.2,93,30.03,1.8,SSW,5.8,-,0.00,Snow,Light Snow,210,2013-01-01 09:29:00
4:48 AM,32.0,30.2,93,30.01,2.5,SSW,4.6,-,0.00,Snow,Light Snow,200,2013-01-01 09:48:00
4:53 AM,32.0,30.0,92,30.03,3.0,SSW,4.6,-,0.00,Snow,Light Snow,200,2013-01-01 09:53:00
5:31 AM,32.0,30.2,93,30.01,2.0,SSW,4.6,-,0.00,Snow,Light Snow,200,2013-01-01 10:31:00
5:53 AM,32.0,30.0,92,30.02,3.0,SSW,5.8,-,0.00,Snow,Light Snow,200,2013-01-01 10:53:00
6:03 AM,32.0,30.2,93,30.01,2.5,SSW,4.6,-,0.00,Snow,Light Snow,210,2013-01-01 11:03:00
6:17 AM,32.0,30.2,93,30.00,1.5,SSW,3.5,-,0.00,Snow,Light Snow,200,2013-01-01 11:17:00
6:53 AM,32.0,30.9,96,30.02,1.8,SSW,3.5,-,0.00,Snow,Light Snow,210,2013-01-01 11:53:00
7:06 AM,32.0,30.2,93,30.01,2.0,SW,3.5,-,0.00,Snow,Light Snow,220,2013-01-01 12:06:00
7:28 AM,32.0,30.2,93,30.02,3.0,SW,4.6,-,0.00,Snow,Light Snow,220,2013-01-01 12:28:00
7:37 AM,32.0,30.2,93,30.02,2.5,SSW,4.6,-,0.00,Snow,Light Snow,210,2013-01-01 12:37:00
7:53 AM,32.0,30.0,92,30.03,2.0,SW,4.6,-,0.00,Snow,Light Snow,220,2013-01-01 12:53:00
8:53 AM,32.0,30.9,96,30.04,1.2,SW,4.6,-,0.00,Snow,Light Snow,220,2013-01-01 13:53:00
9:31 AM,33.8,30.2,87,30.02,3.0,WSW,3.5,-,0.00,Snow,Light Snow,240,2013-01-01 14:31:00
9:53 AM,33.1,30.9,92,30.04,3.0,SW,5.8,-,0.00,,Overcast,220,2013-01-01 14:53:00
10:10 AM,33.8,30.2,87,30.04,1.8,SW,5.8,-,0.00,Snow,Light Snow,230,2013-01-01 15:10:00
10:53 AM,33.1,30.9,92,30.05,1.2,WSW,4.6,-,0.00,Snow,Light Snow,240,2013-01-01 15:53:00
11:35 AM,33.8,30.2,87,30.02,2.0,WSW,5.8,-,0.00,Snow,Light Snow,240,2013-01-01 16:35:00
11:51 AM,33.8,30.2,87,30.00,4.0,WSW,4.6,-,0.01,Snow,Light Snow,240,2013-01-01 16:51:00
11:53 AM,33.1,30.9,92,30.02,4.0,WSW,5.8,-,0.02,Snow,Light Snow,250,2013-01-01 16:53:00
12:34 PM,33.8,30.2,87,29.99,10.0,WSW,6.9,-,0.06,,Overcast,250,2013-01-01 17:34:00
1:37 PM,33.8,30.2,87,29.96,10.0,West,5.8,-,N/A,,Mostly Cloudy,280,2013-01-01 18:37:00
1:53 PM,34.0,30.0,85,29.97,10.0,WNW,5.8,-,N/A,,Mostly Cloudy,290,2013-01-01 18:53:00
2:53 PM,33.1,30.0,89,29.98,10.0,WSW,8.1,-,N/A,,Overcast,250,2013-01-01 19:53:00
3:51 PM,33.8,30.2,87,29.99,2.5,West,6.9,-,0.00,Snow,Light Snow,280,2013-01-01 20:51:00
3:53 PM,33.1,30.0,89,30.00,2.5,West,5.8,-,0.00,Snow,Light Snow,270,2013-01-01 20:53:00
4:08 PM,33.8,30.2,87,30.00,2.0,West,5.8,-,0.00,Snow,Light Snow,260,2013-01-01 21:08:00
4:15 PM,33.8,30.2,87,29.99,2.5,West,3.5,-,0.00,Snow,Light Snow,260,2013-01-01 21:15:00
4:24 PM,33.8,30.2,87,29.99,4.0,West,5.8,-,0.00,,Overcast,270,2013-01-01 21:24:00
4:36 PM,33.8,30.2,87,29.99,2.0,West,3.5,-,0.00,,Overcast,260,2013-01-01 21:36:00
4:49 PM,33.8,30.2,87,30.00,2.0,West,3.5,-,0.00,,Overcast,260,2013-01-01 21:49:00
4:53 PM,33.1,30.0,89,30.02,2.0,West,4.6,-,0.00,,Overcast,260,2013-01-01 21:53:00
5:00 PM,33.8,30.2,87,30.01,7.0,West,3.5,-,N/A,,Overcast,280,2013-01-01 22:00:00
5:09 PM,33.8,30.2,87,30.01,3.0,WNW,5.8,-,N/A,,Overcast,290,2013-01-01 22:09:00
5:26 PM,33.8,30.2,87,30.01,5.0,WNW,4.6,-,N/A,,Overcast,290,2013-01-01 22:26:00
5:53 PM,33.1,28.9,85,30.02,5.0,NW,3.5,-,N/A,,Overcast,310,2013-01-01 22:53:00
6:02 PM,33.8,28.4,81,30.01,9.0,West,5.8,-,N/A,,Overcast,280,2013-01-01 23:02:00
6:53 PM,33.1,28.9,85,30.04,10.0,West,4.6,-,N/A,,Overcast,270,2013-01-01 23:53:00
7:53 PM,32.0,30.0,92,30.04,4.0,WNW,5.8,-,N/A,,Overcast,300,2013-01-02 00:53:00
8:53 PM,30.9,28.9,92,30.04,5.0,WNW,4.6,-,N/A,,Overcast,290,2013-01-02 01:53:00
9:10 PM,30.2,28.4,93,30.03,6.0,WNW,5.8,-,N/A,,Overcast,300,2013-01-02 02:10:00
9:38 PM,30.2,26.6,86,30.02,7.0,WNW,6.9,-,N/A,,Overcast,300,2013-01-02 02:38:00
9:53 PM,30.9,27.0,85,30.04,7.0,WNW,5.8,-,N/A,,Overcast,300,2013-01-02 02:53:00
10:53 PM,30.9,25.0,79,30.05,9.0,NW,6.9,-,N/A,,Overcast,310,2013-01-02 03:53:00
11:53 PM,30.0,23.0,75,30.06,9.0,NW,6.9,-,N/A,,Overcast,310,2013-01-02 04:53:00